sensor_id;sensor_type;location;lat;lon;timestamp;pressure;altitude;pressure_sealevel;temperature;humidity
67740;BME280;54536;50.090;14.420;2023-03-03T00:01:15;99777.41;;;5.95;47.53
67740;BME280;54536;50.090;14.420;2023-03-03T00:03:41;99779.84;;;5.83;47.65
67740;BME280;54536;50.090;14.420;2023-03-03T00:06:13;99774.97;;;6.06;47.89
67740;BME280;54536;50.090;14.420;2023-03-03T00:08:41;99774.41;;;6.01;45.97
67740;BME280;54536;50.090;14.420;2023-03-03T00:11:08;99776.00;;;6.03;45.61
67740;BME280;54536;50.090;14.420;2023-03-03T00:13:56;99785.50;;;5.90;45.95
67740;BME280;54536;50.090;14.420;2023-03-03T00:16:30;99775.75;;;5.79;46.81
67740;BME280;54536;50.090;14.420;2023-03-03T00:18:57;99776.47;;;5.81;46.51
67740;BME280;54536;50.090;14.420;2023-03-03T00:21:30;99777.16;;;5.71;46.24
67740;BME280;54536;50.090;14.420;2023-03-03T00:26:53;99770.34;;;5.68;47.63
67740;BME280;54536;50.090;14.420;2023-03-03T00:29:45;99764.59;;;5.63;47.67
67740;BME280;54536;50.090;14.420;2023-03-03T00:32:35;99771.69;;;5.61;48.51
67740;BME280;54536;50.090;14.420;2023-03-03T00:35:25;99769.25;;;5.72;47.98
67740;BME280;54536;50.090;14.420;2023-03-03T00:38:01;99773.88;;;5.81;48.79
67740;BME280;54536;50.090;14.420;2023-03-03T00:40:32;99775.19;;;5.74;48.98
67740;BME280;54536;50.090;14.420;2023-03-03T00:43:01;99781.63;;;5.83;48.91
67740;BME280;54536;50.090;14.420;2023-03-03T00:45:48;99772.19;;;5.80;47.36
67740;BME280;54536;50.090;14.420;2023-03-03T00:48:31;99775.56;;;5.68;46.27
67740;BME280;54536;50.090;14.420;2023-03-03T00:51:27;99775.03;;;5.63;46.92
67740;BME280;54536;50.090;14.420;2023-03-03T00:53:54;99773.63;;;5.57;47.05
67740;BME280;54536;50.090;14.420;2023-03-03T00:56:21;99773.56;;;5.30;48.63
67740;BME280;54536;50.090;14.420;2023-03-03T00:58:48;99764.91;;;5.44;47.99
67740;BME280;54536;50.090;14.420;2023-03-03T01:01:17;99766.88;;;5.40;47.87
67740;BME280;54536;50.090;14.420;2023-03-03T01:03:49;99756.63;;;5.37;48.32
67740;BME280;54536;50.090;14.420;2023-03-03T01:06:18;99756.44;;;5.40;48.24
67740;BME280;54536;50.090;14.420;2023-03-03T01:08:45;99759.25;;;5.23;48.98
67740;BME280;54536;50.090;14.420;2023-03-03T01:11:16;99754.75;;;5.25;48.78
67740;BME280;54536;50.090;14.420;2023-03-03T01:13:52;99757.56;;;5.36;48.96
67740;BME280;54536;50.090;14.420;2023-03-03T01:16:18;99752.53;;;5.33;49.31
67740;BME280;54536;50.090;14.420;2023-03-03T01:18:45;99750.16;;;5.57;48.53
67740;BME280;54536;50.090;14.420;2023-03-03T01:21:12;99744.97;;;5.43;48.66
67740;BME280;54536;50.090;14.420;2023-03-03T01:23:50;99754.34;;;5.46;48.18
67740;BME280;54536;50.090;14.420;2023-03-03T01:26:17;99747.59;;;5.43;47.77
67740;BME280;54536;50.090;14.420;2023-03-03T01:28:43;99746.06;;;5.39;47.95
67740;BME280;54536;50.090;14.420;2023-03-03T01:31:10;99746.84;;;5.27;47.84
67740;BME280;54536;50.090;14.420;2023-03-03T01:33:37;99747.78;;;5.11;48.06
67740;BME280;54536;50.090;14.420;2023-03-03T01:36:04;99747.84;;;5.38;48.07
67740;BME280;54536;50.090;14.420;2023-03-03T01:38:30;99753.72;;;5.42;48.02
67740;BME280;54536;50.090;14.420;2023-03-03T01:41:03;99745.81;;;5.29;48.15
67740;BME280;54536;50.090;14.420;2023-03-03T01:43:32;99745.06;;;5.13;48.54
67740;BME280;54536;50.090;14.420;2023-03-03T01:48:38;99748.78;;;5.09;48.22
67740;BME280;54536;50.090;14.420;2023-03-03T01:51:22;99745.09;;;5.27;48.28
67740;BME280;54536;50.090;14.420;2023-03-03T01:54:05;99746.75;;;5.14;47.85
67740;BME280;54536;50.090;14.420;2023-03-03T01:56:35;99754.09;;;5.22;47.84
67740;BME280;54536;50.090;14.420;2023-03-03T01:59:09;99743.66;;;5.36;48.10
67740;BME280;54536;50.090;14.420;2023-03-03T02:01:37;99745.94;;;5.13;47.87
67740;BME280;54536;50.090;14.420;2023-03-03T02:04:04;99740.25;;;5.07;48.46
67740;BME280;54536;50.090;14.420;2023-03-03T02:06:39;99740.69;;;4.99;48.59
67740;BME280;54536;50.090;14.420;2023-03-03T02:11:46;99742.56;;;4.97;48.60
67740;BME280;54536;50.090;14.420;2023-03-03T02:14:13;99743.19;;;4.72;48.81
67740;BME280;54536;50.090;14.420;2023-03-03T02:16:41;99736.84;;;4.62;49.11
67740;BME280;54536;50.090;14.420;2023-03-03T02:20:00;99737.75;;;4.61;49.18
67740;BME280;54536;50.090;14.420;2023-03-03T02:22:33;99738.22;;;4.53;48.93
67740;BME280;54536;50.090;14.420;2023-03-03T02:25:09;99731.47;;;4.65;49.02
67740;BME280;54536;50.090;14.420;2023-03-03T02:27:38;99730.91;;;4.74;49.09
67740;BME280;54536;50.090;14.420;2023-03-03T02:30:19;99729.34;;;4.86;48.97
67740;BME280;54536;50.090;14.420;2023-03-03T02:32:47;99729.50;;;4.83;48.75
67740;BME280;54536;50.090;14.420;2023-03-03T02:35:37;99738.03;;;4.56;49.49
67740;BME280;54536;50.090;14.420;2023-03-03T02:38:23;99737.50;;;4.80;49.24
67740;BME280;54536;50.090;14.420;2023-03-03T02:41:27;99735.44;;;4.70;49.74
67740;BME280;54536;50.090;14.420;2023-03-03T02:44:01;99738.84;;;4.42;50.49
67740;BME280;54536;50.090;14.420;2023-03-03T02:46:36;99735.88;;;4.49;50.01
67740;BME280;54536;50.090;14.420;2023-03-03T02:49:04;99737.97;;;4.58;50.24
67740;BME280;54536;50.090;14.420;2023-03-03T02:51:31;99738.97;;;4.55;50.10
67740;BME280;54536;50.090;14.420;2023-03-03T02:53:58;99739.81;;;4.70;49.74
67740;BME280;54536;50.090;14.420;2023-03-03T02:56:25;99752.59;;;4.75;49.76
67740;BME280;54536;50.090;14.420;2023-03-03T02:58:52;99749.88;;;4.62;49.59
67740;BME280;54536;50.090;14.420;2023-03-03T03:01:18;99758.34;;;4.65;49.99
67740;BME280;54536;50.090;14.420;2023-03-03T03:03:45;99756.03;;;4.75;49.86
67740;BME280;54536;50.090;14.420;2023-03-03T03:06:17;99751.56;;;4.77;49.31
67740;BME280;54536;50.090;14.420;2023-03-03T03:08:43;99749.69;;;4.79;49.14
67740;BME280;54536;50.090;14.420;2023-03-03T03:11:10;99752.81;;;4.56;49.57
67740;BME280;54536;50.090;14.420;2023-03-03T03:13:36;99756.41;;;4.39;49.88
67740;BME280;54536;50.090;14.420;2023-03-03T03:16:02;99755.59;;;4.53;49.96
67740;BME280;54536;50.090;14.420;2023-03-03T03:18:28;99757.03;;;4.58;50.05
67740;BME280;54536;50.090;14.420;2023-03-03T03:21:12;99755.97;;;4.61;49.77
67740;BME280;54536;50.090;14.420;2023-03-03T03:23:39;99757.91;;;4.43;50.42
67740;BME280;54536;50.090;14.420;2023-03-03T03:26:06;99754.25;;;4.61;49.76
67740;BME280;54536;50.090;14.420;2023-03-03T03:28:33;99749.38;;;4.55;50.02
67740;BME280;54536;50.090;14.420;2023-03-03T03:31:01;99743.75;;;4.33;50.10
67740;BME280;54536;50.090;14.420;2023-03-03T03:33:27;99747.69;;;4.24;50.67
67740;BME280;54536;50.090;14.420;2023-03-03T03:36:07;99742.97;;;4.31;50.81
67740;BME280;54536;50.090;14.420;2023-03-03T03:38:36;99734.19;;;4.47;50.46
67740;BME280;54536;50.090;14.420;2023-03-03T03:41:04;99736.44;;;4.23;51.22
67740;BME280;54536;50.090;14.420;2023-03-03T03:43:32;99740.84;;;4.07;51.47
67740;BME280;54536;50.090;14.420;2023-03-03T03:45:59;99736.19;;;4.28;50.79
67740;BME280;54536;50.090;14.420;2023-03-03T03:48:37;99726.69;;;4.27;50.75
67740;BME280;54536;50.090;14.420;2023-03-03T03:51:04;99727.88;;;4.21;50.45
67740;BME280;54536;50.090;14.420;2023-03-03T03:53:31;99723.53;;;4.22;50.52
67740;BME280;54536;50.090;14.420;2023-03-03T03:55:57;99718.59;;;4.02;50.80
67740;BME280;54536;50.090;14.420;2023-03-03T03:58:24;99721.22;;;3.86;51.67
67740;BME280;54536;50.090;14.420;2023-03-03T04:00:50;99720.53;;;4.14;51.26
67740;BME280;54536;50.090;14.420;2023-03-03T04:03:16;99722.44;;;3.80;51.41
67740;BME280;54536;50.090;14.420;2023-03-03T04:05:51;99732.78;;;4.12;51.13
67740;BME280;54536;50.090;14.420;2023-03-03T04:08:20;99731.28;;;4.08;51.60
67740;BME280;54536;50.090;14.420;2023-03-03T04:10:46;99747.22;;;4.17;51.19
67740;BME280;54536;50.090;14.420;2023-03-03T04:13:12;99755.59;;;4.22;51.66
67740;BME280;54536;50.090;14.420;2023-03-03T04:15:40;99751.53;;;4.03;51.10
67740;BME280;54536;50.090;14.420;2023-03-03T04:18:07;99747.06;;;4.05;51.26
67740;BME280;54536;50.090;14.420;2023-03-03T04:20:33;99752.53;;;4.00;51.50
67740;BME280;54536;50.090;14.420;2023-03-03T04:23:05;99759.25;;;3.88;51.71
67740;BME280;54536;50.090;14.420;2023-03-03T04:25:32;99756.41;;;3.93;51.91
67740;BME280;54536;50.090;14.420;2023-03-03T04:27:58;99759.66;;;4.12;51.31
67740;BME280;54536;50.090;14.420;2023-03-03T04:30:25;99752.19;;;4.06;51.32
67740;BME280;54536;50.090;14.420;2023-03-03T04:32:52;99757.75;;;4.00;51.58
67740;BME280;54536;50.090;14.420;2023-03-03T04:35:18;99757.31;;;3.92;51.71
67740;BME280;54536;50.090;14.420;2023-03-03T04:37:47;99756.47;;;3.75;52.25
67740;BME280;54536;50.090;14.420;2023-03-03T04:40:13;99759.91;;;3.92;52.25
67740;BME280;54536;50.090;14.420;2023-03-03T04:42:46;99756.97;;;3.82;52.31
67740;BME280;54536;50.090;14.420;2023-03-03T04:45:14;99768.31;;;3.81;52.21
67740;BME280;54536;50.090;14.420;2023-03-03T04:47:41;99762.69;;;3.89;52.50
67740;BME280;54536;50.090;14.420;2023-03-03T04:50:08;99767.47;;;3.96;52.17
67740;BME280;54536;50.090;14.420;2023-03-03T04:52:35;99767.22;;;3.85;51.97
67740;BME280;54536;50.090;14.420;2023-03-03T04:55:02;99758.34;;;3.89;52.13
67740;BME280;54536;50.090;14.420;2023-03-03T04:57:29;99759.34;;;3.87;52.42
67740;BME280;54536;50.090;14.420;2023-03-03T04:59:56;99752.03;;;3.93;52.86
67740;BME280;54536;50.090;14.420;2023-03-03T05:02:23;99750.09;;;3.97;51.42
67740;BME280;54536;50.090;14.420;2023-03-03T05:04:49;99753.81;;;3.93;51.17
67740;BME280;54536;50.090;14.420;2023-03-03T05:07:16;99753.22;;;3.88;52.04
67740;BME280;54536;50.090;14.420;2023-03-03T05:09:43;99747.78;;;3.92;52.17
67740;BME280;54536;50.090;14.420;2023-03-03T05:12:10;99755.03;;;3.86;52.11
67740;BME280;54536;50.090;14.420;2023-03-03T05:14:37;99754.88;;;3.89;51.96
67740;BME280;54536;50.090;14.420;2023-03-03T05:17:05;99756.41;;;3.93;52.68
67740;BME280;54536;50.090;14.420;2023-03-03T05:19:31;99753.22;;;3.88;52.27
67740;BME280;54536;50.090;14.420;2023-03-03T05:21:57;99758.50;;;3.86;52.15
67740;BME280;54536;50.090;14.420;2023-03-03T05:24:29;99762.53;;;3.76;52.94
67740;BME280;54536;50.090;14.420;2023-03-03T05:26:56;99751.09;;;3.79;53.02
67740;BME280;54536;50.090;14.420;2023-03-03T05:29:28;99763.78;;;3.85;52.62
67740;BME280;54536;50.090;14.420;2023-03-03T05:31:57;99773.00;;;3.74;52.95
67740;BME280;54536;50.090;14.420;2023-03-03T05:34:23;99771.84;;;3.64;53.13
67740;BME280;54536;50.090;14.420;2023-03-03T05:36:50;99777.81;;;3.66;53.58
67740;BME280;54536;50.090;14.420;2023-03-03T05:39:16;99782.16;;;3.82;53.25
67740;BME280;54536;50.090;14.420;2023-03-03T05:41:43;99779.47;;;3.83;53.95
67740;BME280;54536;50.090;14.420;2023-03-03T05:44:09;99782.75;;;3.87;53.56
67740;BME280;54536;50.090;14.420;2023-03-03T05:46:37;99787.63;;;3.77;53.10
67740;BME280;54536;50.090;14.420;2023-03-03T05:49:04;99792.66;;;3.80;52.20
67740;BME280;54536;50.090;14.420;2023-03-03T05:51:30;99794.75;;;3.89;52.53
67740;BME280;54536;50.090;14.420;2023-03-03T05:53:57;99790.72;;;3.68;52.02
67740;BME280;54536;50.090;14.420;2023-03-03T05:56:23;99800.28;;;3.83;51.16
67740;BME280;54536;50.090;14.420;2023-03-03T05:58:49;99799.19;;;3.71;51.64
67740;BME280;54536;50.090;14.420;2023-03-03T06:01:15;99810.19;;;3.77;50.88
67740;BME280;54536;50.090;14.420;2023-03-03T06:03:42;99818.16;;;3.73;50.89
67740;BME280;54536;50.090;14.420;2023-03-03T06:06:08;99814.56;;;3.76;50.73
67740;BME280;54536;50.090;14.420;2023-03-03T06:08:40;99829.91;;;3.81;50.92
67740;BME280;54536;50.090;14.420;2023-03-03T06:11:07;99841.41;;;3.77;50.83
67740;BME280;54536;50.090;14.420;2023-03-03T06:13:33;99842.16;;;3.94;51.25
67740;BME280;54536;50.090;14.420;2023-03-03T06:16:00;99844.78;;;4.10;51.31
67740;BME280;54536;50.090;14.420;2023-03-03T06:18:27;99845.88;;;4.06;51.08
67740;BME280;54536;50.090;14.420;2023-03-03T06:20:54;99854.50;;;4.07;51.30
67740;BME280;54536;50.090;14.420;2023-03-03T06:23:21;99860.38;;;4.10;51.52
67740;BME280;54536;50.090;14.420;2023-03-03T06:25:50;99864.66;;;4.11;51.59
67740;BME280;54536;50.090;14.420;2023-03-03T06:28:16;99863.72;;;4.28;51.82
67740;BME280;54536;50.090;14.420;2023-03-03T06:30:42;99873.56;;;4.23;50.88
67740;BME280;54536;50.090;14.420;2023-03-03T06:33:09;99875.06;;;4.27;50.74
67740;BME280;54536;50.090;14.420;2023-03-03T06:35:38;99887.75;;;4.17;51.25
67740;BME280;54536;50.090;14.420;2023-03-03T06:38:04;99890.94;;;4.22;51.43
67740;BME280;54536;50.090;14.420;2023-03-03T06:40:36;99902.53;;;4.17;52.06
67740;BME280;54536;50.090;14.420;2023-03-03T06:43:03;99894.97;;;4.28;52.11
67740;BME280;54536;50.090;14.420;2023-03-03T06:45:29;99904.38;;;4.31;51.51
67740;BME280;54536;50.090;14.420;2023-03-03T06:48:01;99897.16;;;4.36;52.41
67740;BME280;54536;50.090;14.420;2023-03-03T06:50:30;99912.00;;;4.34;52.70
67740;BME280;54536;50.090;14.420;2023-03-03T06:55:27;99917.72;;;4.25;52.67
67740;BME280;54536;50.090;14.420;2023-03-03T06:58:00;99906.47;;;4.40;53.25
67740;BME280;54536;50.090;14.420;2023-03-03T07:00:27;99913.13;;;4.45;52.98
67740;BME280;54536;50.090;14.420;2023-03-03T07:03:06;99904.88;;;4.37;52.93
67740;BME280;54536;50.090;14.420;2023-03-03T07:05:33;99901.44;;;4.37;53.37
67740;BME280;54536;50.090;14.420;2023-03-03T07:07:59;99915.38;;;4.36;53.90
67740;BME280;54536;50.090;14.420;2023-03-03T07:10:28;99908.06;;;4.42;54.13
67740;BME280;54536;50.090;14.420;2023-03-03T07:13:26;99906.31;;;4.43;54.07
67740;BME280;54536;50.090;14.420;2023-03-03T07:15:55;99911.50;;;4.59;53.98
67740;BME280;54536;50.090;14.420;2023-03-03T07:18:44;99903.38;;;4.33;54.50
67740;BME280;54536;50.090;14.420;2023-03-03T07:21:21;99913.63;;;4.36;54.91
67740;BME280;54536;50.090;14.420;2023-03-03T07:23:50;99907.13;;;4.28;55.14
67740;BME280;54536;50.090;14.420;2023-03-03T07:26:27;99908.41;;;4.36;55.39
67740;BME280;54536;50.090;14.420;2023-03-03T07:29:02;99913.44;;;4.39;55.42
67740;BME280;54536;50.090;14.420;2023-03-03T07:31:38;99926.03;;;4.31;55.93
67740;BME280;54536;50.090;14.420;2023-03-03T07:34:21;99928.47;;;4.50;55.86
67740;BME280;54536;50.090;14.420;2023-03-03T07:36:52;99925.38;;;4.43;55.81
67740;BME280;54536;50.090;14.420;2023-03-03T07:39:30;99917.56;;;4.43;56.04
67740;BME280;54536;50.090;14.420;2023-03-03T07:44:58;99922.66;;;4.61;55.65
67740;BME280;54536;50.090;14.420;2023-03-03T07:47:27;99919.75;;;4.35;56.39
67740;BME280;54536;50.090;14.420;2023-03-03T07:49:58;99928.25;;;4.55;56.21
67740;BME280;54536;50.090;14.420;2023-03-03T07:57:53;99924.88;;;4.53;55.97
67740;BME280;54536;50.090;14.420;2023-03-03T08:03:03;99929.13;;;4.85;56.59
67740;BME280;54536;50.090;14.420;2023-03-03T08:05:42;99923.56;;;4.91;55.71
67740;BME280;54536;50.090;14.420;2023-03-03T08:10:49;99926.72;;;4.97;55.23
67740;BME280;54536;50.090;14.420;2023-03-03T08:13:18;99925.41;;;5.20;55.30
67740;BME280;54536;50.090;14.420;2023-03-03T08:15:49;99913.63;;;5.28;54.53
67740;BME280;54536;50.090;14.420;2023-03-03T08:21:24;99919.81;;;5.56;54.22
67740;BME280;54536;50.090;14.420;2023-03-03T08:23:51;99919.53;;;5.60;53.72
67740;BME280;54536;50.090;14.420;2023-03-03T08:26:23;99924.81;;;5.59;53.21
67740;BME280;54536;50.090;14.420;2023-03-03T08:28:51;99923.56;;;5.66;53.97
67740;BME280;54536;50.090;14.420;2023-03-03T08:31:18;99923.09;;;5.74;52.73
67740;BME280;54536;50.090;14.420;2023-03-03T08:33:45;99929.41;;;5.84;53.14
67740;BME280;54536;50.090;14.420;2023-03-03T08:36:12;99927.88;;;5.96;53.61
67740;BME280;54536;50.090;14.420;2023-03-03T08:38:40;99933.56;;;6.02;52.35
67740;BME280;54536;50.090;14.420;2023-03-03T08:41:06;99923.47;;;6.10;52.23
67740;BME280;54536;50.090;14.420;2023-03-03T08:43:33;99934.38;;;6.17;52.14
67740;BME280;54536;50.090;14.420;2023-03-03T08:46:01;99939.22;;;6.23;52.02
67740;BME280;54536;50.090;14.420;2023-03-03T08:48:28;99953.22;;;6.22;52.10
67740;BME280;54536;50.090;14.420;2023-03-03T08:50:54;99947.69;;;6.27;51.99
67740;BME280;54536;50.090;14.420;2023-03-03T08:53:22;99951.34;;;6.24;52.23
67740;BME280;54536;50.090;14.420;2023-03-03T08:55:49;99948.72;;;6.24;51.74
67740;BME280;54536;50.090;14.420;2023-03-03T08:58:18;99948.25;;;6.32;51.86
67740;BME280;54536;50.090;14.420;2023-03-03T09:00:45;99946.97;;;6.25;51.64
67740;BME280;54536;50.090;14.420;2023-03-03T09:03:11;99946.50;;;6.32;51.80
67740;BME280;54536;50.090;14.420;2023-03-03T09:05:39;99946.78;;;6.28;51.29
67740;BME280;54536;50.090;14.420;2023-03-03T09:08:07;99936.22;;;6.29;51.89
67740;BME280;54536;50.090;14.420;2023-03-03T09:10:33;99937.72;;;6.33;51.37
67740;BME280;54536;50.090;14.420;2023-03-03T09:13:14;99939.28;;;6.36;51.48
67740;BME280;54536;50.090;14.420;2023-03-03T09:15:41;99933.13;;;6.37;51.89
67740;BME280;54536;50.090;14.420;2023-03-03T09:20:39;99923.31;;;6.41;51.35
67740;BME280;54536;50.090;14.420;2023-03-03T09:23:32;99927.78;;;6.53;51.33
67740;BME280;54536;50.090;14.420;2023-03-03T09:28:54;99928.78;;;6.65;50.97
67740;BME280;54536;50.090;14.420;2023-03-03T09:31:27;99925.59;;;6.74;50.98
67740;BME280;54536;50.090;14.420;2023-03-03T09:33:56;99920.94;;;6.65;51.34
67740;BME280;54536;50.090;14.420;2023-03-03T09:36:29;99923.69;;;6.76;50.80
67740;BME280;54536;50.090;14.420;2023-03-03T09:39:18;99919.34;;;6.89;50.76
67740;BME280;54536;50.090;14.420;2023-03-03T10:03:43;99924.72;;;7.66;49.13
67740;BME280;54536;50.090;14.420;2023-03-03T10:06:31;99930.47;;;7.71;48.37
67740;BME280;54536;50.090;14.420;2023-03-03T10:11:57;99940.09;;;7.83;48.16
67740;BME280;54536;50.090;14.420;2023-03-03T10:14:25;99934.44;;;7.77;49.00
67740;BME280;54536;50.090;14.420;2023-03-03T10:17:04;99937.28;;;7.86;48.61
67740;BME280;54536;50.090;14.420;2023-03-03T10:22:42;99928.38;;;8.02;47.33
67740;BME280;54536;50.090;14.420;2023-03-03T10:25:17;99926.66;;;8.13;47.41
67740;BME280;54536;50.090;14.420;2023-03-03T10:28:03;99923.72;;;8.18;47.81
67740;BME280;54536;50.090;14.420;2023-03-03T10:36:41;99920.69;;;8.24;47.25
67740;BME280;54536;50.090;14.420;2023-03-03T10:41:57;99915.09;;;8.41;46.74
67740;BME280;54536;50.090;14.420;2023-03-03T10:44:37;99918.59;;;8.53;46.36
67740;BME280;54536;50.090;14.420;2023-03-03T10:53:26;99923.59;;;8.69;45.21
67740;BME280;54536;50.090;14.420;2023-03-03T10:58:58;99929.63;;;8.82;44.99
67740;BME280;54536;50.090;14.420;2023-03-03T11:01:47;99928.25;;;8.89;45.46
67740;BME280;54536;50.090;14.420;2023-03-03T11:04:38;99921.38;;;9.00;45.01
67740;BME280;54536;50.090;14.420;2023-03-03T11:07:38;99918.53;;;9.14;44.53
67740;BME280;54536;50.090;14.420;2023-03-03T11:10:46;99917.75;;;9.25;44.62
67740;BME280;54536;50.090;14.420;2023-03-03T11:16:27;99904.34;;;10.53;41.04
67740;BME280;54536;50.090;14.420;2023-03-03T11:19:12;99906.84;;;11.19;39.79
67740;BME280;54536;50.090;14.420;2023-03-03T11:24:25;99900.84;;;11.59;38.61
67740;BME280;54536;50.090;14.420;2023-03-03T11:29:26;99903.00;;;11.75;38.29
67740;BME280;54536;50.090;14.420;2023-03-03T11:32:00;99906.34;;;11.77;37.87
67740;BME280;54536;50.090;14.420;2023-03-03T11:34:57;99894.69;;;12.50;35.76
67740;BME280;54536;50.090;14.420;2023-03-03T11:40:17;99902.47;;;12.61;36.28
67740;BME280;54536;50.090;14.420;2023-03-03T11:45:41;99898.75;;;12.74;35.34
67740;BME280;54536;50.090;14.420;2023-03-03T11:48:22;99889.81;;;12.46;35.91
67740;BME280;54536;50.090;14.420;2023-03-03T11:51:13;99883.59;;;12.56;35.89
67740;BME280;54536;50.090;14.420;2023-03-03T11:56:46;99884.56;;;12.84;35.88
67740;BME280;54536;50.090;14.420;2023-03-03T12:04:55;99884.16;;;13.08;34.72
67740;BME280;54536;50.090;14.420;2023-03-03T12:07:53;99871.53;;;12.93;34.38
67740;BME280;54536;50.090;14.420;2023-03-03T12:10:55;99879.66;;;12.41;36.12
67740;BME280;54536;50.090;14.420;2023-03-03T12:13:39;99877.94;;;12.11;37.63
67740;BME280;54536;50.090;14.420;2023-03-03T12:29:45;99866.25;;;12.73;37.06
67740;BME280;54536;50.090;14.420;2023-03-03T12:35:30;99872.31;;;12.45;37.01
67740;BME280;54536;50.090;14.420;2023-03-03T12:41:14;99862.47;;;11.97;37.66
67740;BME280;54536;50.090;14.420;2023-03-03T12:44:12;99863.13;;;11.58;39.00
67740;BME280;54536;50.090;14.420;2023-03-03T12:52:45;99856.47;;;10.91;39.04
67740;BME280;54536;50.090;14.420;2023-03-03T12:55:40;99867.66;;;10.72;38.22
67740;BME280;54536;50.090;14.420;2023-03-03T13:06:22;99850.69;;;10.33;39.73
67740;BME280;54536;50.090;14.420;2023-03-03T13:09:05;99848.22;;;10.31;39.72
67740;BME280;54536;50.090;14.420;2023-03-03T13:21:00;99845.69;;;10.19;38.77
67740;BME280;54536;50.090;14.420;2023-03-03T13:26:09;99838.53;;;10.21;39.39
67740;BME280;54536;50.090;14.420;2023-03-03T13:31:20;99834.72;;;10.02;38.94
67740;BME280;54536;50.090;14.420;2023-03-03T13:33:53;99838.31;;;10.01;38.86
67740;BME280;54536;50.090;14.420;2023-03-03T13:36:44;99832.97;;;9.92;39.29
67740;BME280;54536;50.090;14.420;2023-03-03T13:39:27;99834.75;;;9.80;38.94
67740;BME280;54536;50.090;14.420;2023-03-03T13:42:18;99834.75;;;9.91;39.65
67740;BME280;54536;50.090;14.420;2023-03-03T13:44:49;99834.28;;;9.86;39.25
67740;BME280;54536;50.090;14.420;2023-03-03T13:47:29;99826.28;;;9.88;40.27
67740;BME280;54536;50.090;14.420;2023-03-03T13:50:32;99833.44;;;9.74;40.12
67740;BME280;54536;50.090;14.420;2023-03-03T14:01:51;99826.41;;;9.75;39.73
67740;BME280;54536;50.090;14.420;2023-03-03T14:09:58;99818.66;;;9.62;40.47
67740;BME280;54536;50.090;14.420;2023-03-03T14:12:35;99804.47;;;9.65;41.38
67740;BME280;54536;50.090;14.420;2023-03-03T14:15:17;99814.59;;;9.58;41.55
67740;BME280;54536;50.090;14.420;2023-03-03T14:18:40;99819.50;;;9.63;40.72
67740;BME280;54536;50.090;14.420;2023-03-03T14:20:48;99824.50;;;9.66;40.87
67740;BME280;54536;50.090;14.420;2023-03-03T14:23:29;99809.34;;;9.47;41.30
67740;BME280;54536;50.090;14.420;2023-03-03T14:28:40;99825.81;;;9.49;41.34
67740;BME280;54536;50.090;14.420;2023-03-03T14:31:29;99819.63;;;9.38;41.86
67740;BME280;54536;50.090;14.420;2023-03-03T14:36:41;99823.16;;;9.26;41.76
67740;BME280;54536;50.090;14.420;2023-03-03T14:39:36;99824.22;;;9.24;41.76
67740;BME280;54536;50.090;14.420;2023-03-03T14:42:34;99817.56;;;9.20;42.15
67740;BME280;54536;50.090;14.420;2023-03-03T14:45:28;99823.16;;;9.26;41.72
67740;BME280;54536;50.090;14.420;2023-03-03T14:47:59;99834.13;;;9.31;42.50
67740;BME280;54536;50.090;14.420;2023-03-03T14:50:39;99827.91;;;9.21;43.30
67740;BME280;54536;50.090;14.420;2023-03-03T14:55:47;99830.44;;;9.23;43.32
67740;BME280;54536;50.090;14.420;2023-03-03T14:58:27;99837.94;;;9.16;43.51
67740;BME280;54536;50.090;14.420;2023-03-03T15:01:20;99826.56;;;8.93;43.03
67740;BME280;54536;50.090;14.420;2023-03-03T15:06:54;99822.25;;;8.92;44.05
67740;BME280;54536;50.090;14.420;2023-03-03T15:09:48;99823.41;;;8.77;44.20
67740;BME280;54536;50.090;14.420;2023-03-03T15:12:34;99821.78;;;8.87;43.37
67740;BME280;54536;50.090;14.420;2023-03-03T15:17:37;99815.13;;;8.94;43.35
67740;BME280;54536;50.090;14.420;2023-03-03T15:26:03;99821.41;;;8.80;43.32
67740;BME280;54536;50.090;14.420;2023-03-03T15:28:44;99818.47;;;8.61;42.91
67740;BME280;54536;50.090;14.420;2023-03-03T15:34:29;99810.94;;;8.56;43.34
67740;BME280;54536;50.090;14.420;2023-03-03T15:40:02;99810.91;;;8.45;43.83
67740;BME280;54536;50.090;14.420;2023-03-03T15:45:34;99811.25;;;8.40;43.75
67740;BME280;54536;50.090;14.420;2023-03-03T15:48:28;99810.66;;;8.48;44.57
67740;BME280;54536;50.090;14.420;2023-03-03T15:51:38;99807.06;;;8.38;45.39
67740;BME280;54536;50.090;14.420;2023-03-03T15:54:40;99806.19;;;8.37;45.07
67740;BME280;54536;50.090;14.420;2023-03-03T15:57:31;99811.34;;;8.39;44.76
67740;BME280;54536;50.090;14.420;2023-03-03T16:03:07;99807.69;;;8.29;45.18
67740;BME280;54536;50.090;14.420;2023-03-03T16:08:23;99807.56;;;8.30;43.93
67740;BME280;54536;50.090;14.420;2023-03-03T16:13:38;99797.00;;;8.32;44.03
67740;BME280;54536;50.090;14.420;2023-03-03T16:30:49;99797.91;;;8.07;46.38
67740;BME280;54536;50.090;14.420;2023-03-03T16:39:19;99827.78;;;8.04;47.12
67740;BME280;54536;50.090;14.420;2023-03-03T16:45:21;99834.91;;;8.02;46.13
67740;BME280;54536;50.090;14.420;2023-03-03T16:48:03;99844.56;;;8.02;46.40
67740;BME280;54536;50.090;14.420;2023-03-03T16:51:04;99842.69;;;7.91;46.70
67740;BME280;54536;50.090;14.420;2023-03-03T16:53:56;99853.91;;;7.93;46.21
67740;BME280;54536;50.090;14.420;2023-03-03T16:56:44;99860.72;;;7.83;47.00
67740;BME280;54536;50.090;14.420;2023-03-03T16:59:38;99866.25;;;7.78;47.16
67740;BME280;54536;50.090;14.420;2023-03-03T17:04:57;99870.47;;;7.55;48.14
67740;BME280;54536;50.090;14.420;2023-03-03T17:10:51;99871.53;;;7.40;47.51
67740;BME280;54536;50.090;14.420;2023-03-03T17:19:39;99879.66;;;6.97;48.39
67740;BME280;54536;50.090;14.420;2023-03-03T17:24:47;99880.50;;;6.97;49.39
67740;BME280;54536;50.090;14.420;2023-03-03T17:30:14;99878.06;;;6.94;49.07
67740;BME280;54536;50.090;14.420;2023-03-03T17:38:19;99880.00;;;6.78;49.09
67740;BME280;54536;50.090;14.420;2023-03-03T17:41:01;99885.13;;;6.79;48.89
67740;BME280;54536;50.090;14.420;2023-03-03T17:46:29;99876.41;;;6.66;48.54